Time,TemperatureF,DewpointF,PressureIn,WindDirection,WindDirectionDegrees,WindSpeedMPH,WindSpeedGustMPH,Humidity,HourlyPrecipIn,Conditions,Clouds,dailyrainin,SolarRadiationWatts/m^2,SoftwareType,DateUTC
2013-09-01 00:01:00,53.2,46.9,30.25,SW,228,18.4,18.4,79,0.00,CLR,,0.00,0.0,WeatherDisplay:10.37,2013-08-31 23:01:00,
2013-09-01 00:06:00,53.2,46.5,30.24,WSW,237,4.6,4.6,78,0.00,CLR,,0.00,0.0,WeatherDisplay:10.37,2013-08-31 23:06:00,
2013-09-01 00:11:00,53.1,46.4,30.25,SW,233,9.0,9.0,78,0.00,CLR,,0.00,0.0,WeatherDisplay:10.37,2013-08-31 23:11:00,
2013-09-01 00:16:00,53.1,46.4,30.25,West,273,13.8,13.8,78,0.00,CLR,,0.00,0.0,WeatherDisplay:10.37,2013-08-31 23:16:00,
2013-09-01 00:21:00,52.9,46.2,30.25,WSW,242,11.5,11.5,78,0.00,CLR,,0.00,0.0,WeatherDisplay:10.37,2013-08-31 23:21:00,
2013-09-01 00:26:00,52.9,45.9,30.25,WSW,242,15.0,15.0,77,0.00,CLR,,0.00,0.0,WeatherDisplay:10.37,2013-08-31 23:26:00,
2013-09-01 00:31:00,52.8,46.1,30.25,WSW,244,12.7,12.7,78,0.00,CLR,,0.00,0.0,WeatherDisplay:10.37,2013-08-31 23:31:00,
2013-09-01 00:36:00,52.7,46.0,30.24,SW,236,13.8,13.8,78,0.00,CLR,,0.00,0.0,WeatherDisplay:10.37,2013-08-31 23:36:00,
2013-09-01 00:41:00,52.7,46.0,30.25,SW,230,12.7,12.7,78,0.00,CLR,,0.00,0.0,WeatherDisplay:10.37,2013-08-31 23:41:00,
2013-09-01 00:46:00,52.6,45.9,30.25,WSW,238,11.5,11.5,78,0.00,CLR,,0.00,0.0,WeatherDisplay:10.37,2013-08-31 23:46:00,
2013-09-01 00:51:00,52.5,45.8,30.25,WSW,248,3.5,3.5,78,0.00,CLR,,0.00,0.0,WeatherDisplay:10.37,2013-08-31 23:51:00,
2013-09-01 00:56:00,52.5,45.8,30.25,WSW,246,8.1,8.1,78,0.00,CLR,,0.00,0.0,WeatherDisplay:10.37,2013-08-31 23:56:00,
2013-09-01 01:01:00,52.4,45.7,30.25,WSW,252,9.2,9.2,78,0.00,CLR,,0.00,0.0,WeatherDisplay:10.37,2013-09-01 00:01:00,
2013-09-01 01:06:00,52.4,45.7,30.24,WSW,248,16.1,16.1,78,0.00,CLR,,0.00,0.0,WeatherDisplay:10.37,2013-09-01 00:06:00,
2013-09-01 01:11:00,52.5,45.8,30.24,WSW,244,17.3,17.3,78,0.00,CLR,,0.00,0.0,WeatherDisplay:10.37,2013-09-01 00:11:00,
2013-09-01 01:16:00,52.5,45.8,30.24,WSW,244,16.1,16.1,78,0.00,CLR,,0.00,0.0,WeatherDisplay:10.37,2013-09-01 00:16:00,
2013-09-01 01:21:00,52.6,46.3,30.24,WSW,243,9.2,9.2,79,0.00,CLR,,0.00,0.0,WeatherDisplay:10.37,2013-09-01 00:21:00,
2013-09-01 01:26:00,52.6,46.3,30.24,WSW,241,9.2,9.2,79,0.00,CLR,,0.00,0.0,WeatherDisplay:10.37,2013-09-01 00:26:00,
2013-09-01 01:31:00,52.6,46.3,30.24,WSW,246,13.8,13.8,79,0.00,CLR,,0.00,0.0,WeatherDisplay:10.37,2013-09-01 00:31:00,
2013-09-01 01:36:00,52.6,46.3,30.24,SW,229,15.0,15.0,79,0.00,CLR,,0.00,0.0,WeatherDisplay:10.37,2013-09-01 00:36:00,
2013-09-01 01:41:00,52.5,46.2,30.24,WSW,244,15.0,15.0,79,0.00,CLR,,0.00,0.0,WeatherDisplay:10.37,2013-09-01 00:41:00,
2013-09-01 01:46:00,52.5,46.5,30.24,SW,234,13.8,13.8,80,0.00,CLR,,0.00,0.0,WeatherDisplay:10.37,2013-09-01 00:46:00,
2013-09-01 01:51:00,52.4,46.4,30.24,SW,233,11.5,11.5,80,0.00,CLR,,0.00,0.0,WeatherDisplay:10.37,2013-09-01 00:51:00,
2013-09-01 01:56:00,52.4,46.7,30.24,West,265,11.5,11.5,81,0.00,CLR,,0.00,0.0,WeatherDisplay:10.37,2013-09-01 00:56:00,
2013-09-01 02:02:00,52.3,46.6,30.24,WSW,245,12.7,12.7,81,0.00,CLR,,0.00,0.0,WeatherDisplay:10.37,2013-09-01 01:02:00,
2013-09-01 02:07:00,52.3,46.3,30.24,WSW,240,16.1,16.1,80,0.00,CLR,,0.00,0.0,WeatherDisplay:10.37,2013-09-01 01:07:00,
2013-09-01 02:12:00,52.3,46.3,30.24,WNW,302,10.4,10.4,80,0.00,CLR,,0.00,0.0,WeatherDisplay:10.37,2013-09-01 01:12:00,
2013-09-01 02:17:00,52.3,46.3,30.24,SW,236,10.0,10.0,80,0.00,CLR,,0.00,0.0,WeatherDisplay:10.37,2013-09-01 01:17:00,
2013-09-01 02:22:00,52.2,46.2,30.24,WSW,245,9.2,9.2,80,0.00,CLR,,0.00,0.0,WeatherDisplay:10.37,2013-09-01 01:22:00,
2013-09-01 02:27:00,52.2,46.5,30.24,WSW,240,4.6,4.6,81,0.00,CLR,,0.00,0.0,WeatherDisplay:10.37,2013-09-01 01:27:00,
2013-09-01 02:32:00,52.2,46.5,30.24,SW,227,4.6,4.6,81,0.00,CLR,,0.00,0.0,WeatherDisplay:10.37,2013-09-01 01:32:00,
2013-09-01 02:37:00,52.2,46.5,30.24,WSW,242,4.6,4.6,81,0.00,CLR,,0.00,0.0,WeatherDisplay:10.37,2013-09-01 01:37:00,
2013-09-01 02:42:00,52.2,46.5,30.24,SW,232,3.5,3.5,81,0.00,CLR,,0.00,0.0,WeatherDisplay:10.37,2013-09-01 01:42:00,
2013-09-01 02:47:00,52.2,46.5,30.24,SW,236,5.8,5.8,81,0.00,CLR,,0.00,0.0,WeatherDisplay:10.37,2013-09-01 01:47:00,
2013-09-01 02:52:00,52.2,46.5,30.24,SW,235,13.8,13.8,81,0.00,CLR,,0.00,0.0,WeatherDisplay:10.37,2013-09-01 01:52:00,
2013-09-01 02:57:00,52.2,46.5,30.24,SW,223,5.8,5.8,81,0.00,CLR,,0.00,0.0,WeatherDisplay:10.37,2013-09-01 01:57:00,
2013-09-01 03:02:00,52.3,46.6,30.24,WSW,252,3.5,3.5,81,0.00,CLR,,0.00,0.0,WeatherDisplay:10.37,2013-09-01 02:02:00,
2013-09-01 03:07:00,52.3,46.6,30.24,WSW,250,5.0,5.0,81,0.00,CLR,,0.00,0.0,WeatherDisplay:10.37,2013-09-01 02:07:00,
2013-09-01 03:12:00,52.3,46.6,30.24,WSW,239,6.9,6.9,81,0.00,CLR,,0.00,0.0,WeatherDisplay:10.37,2013-09-01 02:12:00,
2013-09-01 03:17:00,52.4,46.7,30.24,WNW,287,10.0,10.0,81,0.00,CLR,,0.00,0.0,WeatherDisplay:10.37,2013-09-01 02:17:00,
2013-09-01 03:22:00,52.4,46.7,30.24,WSW,240,11.5,11.5,81,0.00,CLR,,0.00,0.0,WeatherDisplay:10.37,2013-09-01 02:22:00,
2013-09-01 03:27:00,52.5,46.8,30.24,WSW,246,11.5,11.5,81,0.00,CLR,,0.00,0.0,WeatherDisplay:10.37,2013-09-01 02:27:00,
2013-09-01 03:32:00,52.5,46.8,30.24,WSW,245,6.9,6.9,81,0.00,CLR,,0.00,0.0,WeatherDisplay:10.37,2013-09-01 02:32:00,
2013-09-01 03:37:00,52.6,46.9,30.23,SSW,212,6.9,6.9,81,0.00,CLR,,0.00,0.0,WeatherDisplay:10.37,2013-09-01 02:37:00,
2013-09-01 03:42:00,52.6,46.9,30.23,SW,221,11.5,11.5,81,0.00,CLR,,0.00,0.0,WeatherDisplay:10.37,2013-09-01 02:42:00,
2013-09-01 03:47:00,52.6,46.9,30.23,SW,234,13.8,13.8,81,0.00,CLR,,0.00,0.0,WeatherDisplay:10.37,2013-09-01 02:47:00,
2013-09-01 03:52:00,52.6,46.9,30.24,WSW,240,11.5,11.5,81,0.00,CLR,,0.00,0.0,WeatherDisplay:10.37,2013-09-01 02:52:00,
2013-09-01 03:57:00,52.6,46.9,30.23,WSW,245,13.8,13.8,81,0.00,CLR,,0.00,0.0,WeatherDisplay:10.37,2013-09-01 02:57:00,
2013-09-01 04:02:00,52.5,46.8,30.23,WSW,240,12.7,12.7,81,0.00,CLR,,0.00,0.0,WeatherDisplay:10.37,2013-09-01 03:02:00,
2013-09-01 04:07:00,52.6,46.9,30.23,West,265,11.5,11.5,81,0.00,CLR,,0.00,0.0,WeatherDisplay:10.37,2013-09-01 03:07:00,
2013-09-01 04:12:00,52.6,46.9,30.23,WSW,254,10.4,10.4,81,0.00,CLR,,0.00,0.0,WeatherDisplay:10.37,2013-09-01 03:12:00,
2013-09-01 04:17:00,52.6,46.9,30.23,WSW,252,11.5,11.5,81,0.00,CLR,,0.00,0.0,WeatherDisplay:10.37,2013-09-01 03:17:00,
2013-09-01 04:22:00,52.7,47.0,30.22,West,275,9.2,9.2,81,0.00,CLR,,0.00,0.0,WeatherDisplay:10.37,2013-09-01 03:22:00,
2013-09-01 04:27:00,52.7,47.0,30.23,SW,226,10.4,10.4,81,0.00,CLR,,0.00,0.0,WeatherDisplay:10.37,2013-09-01 03:27:00,
2013-09-01 04:32:00,52.7,47.0,30.23,WSW,240,8.1,8.1,81,0.00,CLR,,0.00,0.0,WeatherDisplay:10.37,2013-09-01 03:32:00,
2013-09-01 04:37:00,52.8,47.5,30.22,SW,231,9.2,9.2,82,0.00,CLR,,0.00,0.0,WeatherDisplay:10.37,2013-09-01 03:37:00,
2013-09-01 04:42:00,52.8,47.1,30.22,WSW,238,11.5,11.5,81,0.00,CLR,,0.00,0.0,WeatherDisplay:10.37,2013-09-01 03:42:00,
2013-09-01 04:47:00,52.8,47.1,30.22,WSW,240,9.2,9.2,81,0.00,CLR,,0.00,0.0,WeatherDisplay:10.37,2013-09-01 03:47:00,
2013-09-01 04:52:00,52.8,47.1,30.23,SW,234,11.5,11.5,81,0.00,CLR,,0.00,0.0,WeatherDisplay:10.37,2013-09-01 03:52:00,
2013-09-01 04:57:00,52.8,47.1,30.23,SW,232,9.2,9.2,81,0.00,CLR,,0.00,0.0,WeatherDisplay:10.37,2013-09-01 03:57:00,
2013-09-01 05:01:00,52.8,47.1,30.22,WSW,242,12.7,12.7,81,0.00,CLR,,0.00,0.0,WeatherDisplay:10.37,2013-09-01 04:01:00,
2013-09-01 05:03:00,52.8,47.1,30.22,NNW,336,13.8,13.8,81,0.00,CLR,,0.00,0.0,WeatherDisplay:10.37,2013-09-01 04:03:00,
2013-09-01 05:08:00,52.8,47.1,30.22,South,182,5.8,5.8,81,0.00,CLR,,0.00,0.0,WeatherDisplay:10.37,2013-09-01 04:08:00,
2013-09-01 05:13:00,52.8,47.1,30.22,WNW,283,12.7,12.7,81,0.00,CLR,,0.00,0.0,WeatherDisplay:10.37,2013-09-01 04:13:00,
2013-09-01 05:18:00,52.8,47.1,30.22,WSW,250,5.8,5.8,81,0.00,CLR,,0.00,0.0,WeatherDisplay:10.37,2013-09-01 04:18:00,
2013-09-01 05:23:00,52.7,47.0,30.22,West,275,5.8,5.8,81,0.00,CLR,,0.00,0.0,WeatherDisplay:10.37,2013-09-01 04:23:00,
2013-09-01 05:28:00,52.7,47.0,30.21,WSW,246,15.0,15.0,81,0.00,CLR,,0.00,0.0,WeatherDisplay:10.37,2013-09-01 04:28:00,
2013-09-01 05:33:00,52.8,47.1,30.22,West,267,21.9,21.9,81,0.00,CLR,,0.00,0.0,WeatherDisplay:10.37,2013-09-01 04:33:00,
2013-09-01 05:38:00,52.8,47.1,30.21,SSW,205,9.2,9.2,81,0.00,CLR,,0.00,0.0,WeatherDisplay:10.37,2013-09-01 04:38:00,
2013-09-01 05:43:00,52.8,47.1,30.21,WNW,296,16.1,16.1,81,0.00,CLR,,0.00,0.0,WeatherDisplay:10.37,2013-09-01 04:43:00,
2013-09-01 05:48:00,52.8,47.1,30.20,WNW,290,6.9,6.9,81,0.00,CLR,,0.00,0.0,WeatherDisplay:10.37,2013-09-01 04:48:00,
2013-09-01 05:53:00,52.8,47.1,30.21,WNW,295,6.9,6.9,81,0.00,CLR,,0.00,0.0,WeatherDisplay:10.37,2013-09-01 04:53:00,
2013-09-01 05:58:00,52.8,47.1,30.21,SW,236,5.8,5.8,81,0.00,CLR,,0.00,0.0,WeatherDisplay:10.37,2013-09-01 04:58:00,
2013-09-01 06:03:00,52.7,47.0,30.20,WSW,240,7.0,7.0,81,0.00,OVC,,0.00,0.0,WeatherDisplay:10.37,2013-09-01 05:03:00,
2013-09-01 06:08:00,52.6,46.6,30.21,West,260,13.8,13.8,80,0.00,OVC,,0.00,0.0,WeatherDisplay:10.37,2013-09-01 05:08:00,
2013-09-01 06:13:00,52.6,46.6,30.20,WSW,246,11.5,11.5,80,0.00,OVC,,0.00,0.0,WeatherDisplay:10.37,2013-09-01 05:13:00,
2013-09-01 06:18:00,52.6,46.9,30.21,SW,223,11.5,11.5,81,0.00,OVC,,0.00,0.0,WeatherDisplay:10.37,2013-09-01 05:18:00,
2013-09-01 06:23:00,52.7,47.0,30.21,WNW,291,11.5,11.5,81,0.00,OVC,,0.00,0.0,WeatherDisplay:10.37,2013-09-01 05:23:00,
2013-09-01 06:28:00,52.7,47.0,30.22,SW,234,4.6,4.6,81,0.00,OVC,,0.00,0.0,WeatherDisplay:10.37,2013-09-01 05:28:00,
2013-09-01 06:33:00,52.7,47.0,30.22,SW,228,5.8,5.8,81,0.00,OVC,,0.00,0.0,WeatherDisplay:10.37,2013-09-01 05:33:00,
2013-09-01 06:38:00,52.7,47.0,30.22,WSW,246,12.7,12.7,81,0.00,OVC,,0.00,0.0,WeatherDisplay:10.37,2013-09-01 05:38:00,
2013-09-01 06:43:00,52.7,47.0,30.20,WSW,252,16.1,16.1,81,0.00,BKN,,0.00,5.0,WeatherDisplay:10.37,2013-09-01 05:43:00,
2013-09-01 06:48:00,52.7,47.0,30.22,SW,236,11.0,11.0,81,0.00,BKN,,0.00,5.0,WeatherDisplay:10.37,2013-09-01 05:48:00,
2013-09-01 06:53:00,52.7,47.0,30.21,WSW,238,17.3,17.3,81,0.00,BKN,,0.00,7.0,WeatherDisplay:10.37,2013-09-01 05:53:00,
2013-09-01 06:58:00,52.8,47.1,30.21,SW,222,13.8,13.8,81,0.00,BKN,,0.00,11.0,WeatherDisplay:10.37,2013-09-01 05:58:00,
2013-09-01 07:03:00,52.9,47.6,30.21,SW,232,17.3,17.3,82,0.00,BKN,,0.00,12.0,WeatherDisplay:10.37,2013-09-01 06:03:00,
2013-09-01 07:08:00,52.8,47.8,30.20,WSW,253,13.8,13.8,83,0.00,BKN,,0.00,14.0,WeatherDisplay:10.37,2013-09-01 06:08:00,
2013-09-01 07:13:00,52.8,47.8,30.20,NW,309,5.0,5.0,83,0.00,BKN,,0.00,16.0,WeatherDisplay:10.37,2013-09-01 06:13:00,
2013-09-01 07:18:00,52.8,47.8,30.21,WSW,249,4.6,4.6,83,0.00,BKN,,0.00,19.0,WeatherDisplay:10.37,2013-09-01 06:18:00,
2013-09-01 07:23:00,52.8,47.8,30.21,WSW,244,13.8,13.8,83,0.00,BKN,,0.00,21.0,WeatherDisplay:10.37,2013-09-01 06:23:00,
2013-09-01 07:28:00,52.8,47.8,30.20,WSW,257,9.2,9.2,83,0.00,BKN,,0.00,25.0,WeatherDisplay:10.37,2013-09-01 06:28:00,
2013-09-01 07:33:00,52.8,48.1,30.21,NW,306,9.2,9.2,84,0.00,BKN,,0.00,30.0,WeatherDisplay:10.37,2013-09-01 06:33:00,
2013-09-01 07:38:00,52.9,48.2,30.20,WNW,297,4.6,4.6,84,0.00,BKN,,0.00,33.0,WeatherDisplay:10.37,2013-09-01 06:38:00,
2013-09-01 07:43:00,52.9,48.2,30.21,WSW,246,4.6,4.6,84,0.00,BKN,,0.00,33.0,WeatherDisplay:10.37,2013-09-01 06:43:00,
2013-09-01 07:48:00,52.9,48.2,30.21,SW,234,12.7,12.7,84,0.00,BKN,,0.00,35.0,WeatherDisplay:10.37,2013-09-01 06:48:00,
2013-09-01 07:53:00,53.0,48.3,30.21,WSW,241,10.0,10.0,84,0.00,BKN,,0.00,40.0,WeatherDisplay:10.37,2013-09-01 06:53:00,
2013-09-01 07:58:00,53.1,48.1,30.21,SSW,208,15.0,15.0,83,0.00,BKN,,0.00,47.0,WeatherDisplay:10.37,2013-09-01 06:58:00,
2013-09-01 08:03:00,53.2,48.2,30.20,WSW,237,11.5,11.5,83,0.00,BKN,,0.00,58.0,WeatherDisplay:10.37,2013-09-01 07:03:00,
2013-09-01 08:08:00,53.3,48.3,30.20,WSW,240,5.8,5.8,83,0.00,BKN,,0.00,60.0,WeatherDisplay:10.37,2013-09-01 07:08:00,
2013-09-01 08:13:00,53.4,48.4,30.20,SW,227,9.0,9.0,83,0.00,BKN,,0.00,58.0,WeatherDisplay:10.37,2013-09-01 07:13:00,
2013-09-01 08:18:00,53.6,48.2,30.20,WSW,253,11.5,11.5,82,0.00,BKN,,0.00,60.0,WeatherDisplay:10.37,2013-09-01 07:18:00,
2013-09-01 08:23:00,53.7,48.3,30.20,WNW,287,6.0,6.0,82,0.00,BKN,,0.00,60.0,WeatherDisplay:10.37,2013-09-01 07:23:00,
2013-09-01 08:28:00,53.8,48.1,30.20,WSW,240,12.7,12.7,81,0.00,BKN,,0.00,58.0,WeatherDisplay:10.37,2013-09-01 07:28:00,
2013-09-01 08:33:00,54.0,48.3,30.21,SW,234,6.9,6.9,81,0.00,BKN,,0.00,56.0,WeatherDisplay:10.37,2013-09-01 07:33:00,
2013-09-01 08:38:00,54.1,48.4,30.20,WSW,250,4.0,4.0,81,0.00,BKN,,0.00,63.0,WeatherDisplay:10.37,2013-09-01 07:38:00,
2013-09-01 08:43:00,54.1,48.4,30.21,SW,235,5.8,5.8,81,0.00,BKN,,0.00,42.0,WeatherDisplay:10.37,2013-09-01 07:43:00,
2013-09-01 08:48:00,54.2,49.1,30.20,WSW,240,8.1,8.1,83,0.00,BKN,,0.00,70.0,WeatherDisplay:10.37,2013-09-01 07:48:00,
2013-09-01 08:53:00,54.3,49.2,30.20,WSW,252,10.4,10.4,83,0.00,BKN,,0.00,86.0,WeatherDisplay:10.37,2013-09-01 07:53:00,
2013-09-01 08:58:00,54.2,49.5,30.20,SSW,200,5.8,5.8,84,0.00,BKN,,0.00,98.0,WeatherDisplay:10.37,2013-09-01 07:58:00,
2013-09-01 09:03:00,54.2,49.5,30.20,West,261,10.0,10.0,84,0.00,BKN,,0.00,113.0,WeatherDisplay:10.37,2013-09-01 08:03:00,
2013-09-01 09:08:00,54.3,49.6,30.20,WSW,244,11.5,11.5,84,0.00,BKN,,0.00,125.0,WeatherDisplay:10.37,2013-09-01 08:08:00,
2013-09-01 09:13:00,54.3,49.6,30.20,WSW,250,13.8,13.8,84,0.00,BKN,,0.00,139.0,WeatherDisplay:10.37,2013-09-01 08:13:00,
2013-09-01 09:18:00,54.5,49.4,30.20,WSW,254,11.5,11.5,83,0.00,BKN,,0.00,125.0,WeatherDisplay:10.37,2013-09-01 08:18:00,
2013-09-01 09:23:00,54.7,49.6,30.20,SW,234,9.2,9.2,83,0.00,BKN,,0.00,116.0,WeatherDisplay:10.37,2013-09-01 08:23:00,
2013-09-01 09:28:00,54.8,49.4,30.20,NNW,344,9.2,9.2,82,0.00,BKN,,0.00,97.0,WeatherDisplay:10.37,2013-09-01 08:28:00,
2013-09-01 09:33:00,54.9,49.5,30.20,WNW,292,6.9,6.9,82,0.00,BKN,,0.00,93.0,WeatherDisplay:10.37,2013-09-01 08:33:00,
2013-09-01 09:38:00,54.9,49.2,30.19,SSW,196,10.4,10.4,81,0.00,BKN,,0.00,104.0,WeatherDisplay:10.37,2013-09-01 08:38:00,
2013-09-01 09:43:00,55.0,49.3,30.19,SW,215,11.5,11.5,81,0.00,BKN,,0.00,163.0,WeatherDisplay:10.37,2013-09-01 08:43:00,
2013-09-01 09:48:00,55.2,49.1,30.20,WSW,237,17.3,17.3,80,0.00,BKN,,0.00,113.0,WeatherDisplay:10.37,2013-09-01 08:48:00,
2013-09-01 09:54:00,55.4,49.3,30.19,West,273,11.5,11.5,80,0.00,BKN,,0.00,142.0,WeatherDisplay:10.37,2013-09-01 08:54:00,
2013-09-01 09:59:00,55.6,49.2,30.18,WNW,295,10.4,10.4,79,0.00,BKN,,0.00,120.0,WeatherDisplay:10.37,2013-09-01 08:59:00,
2013-09-01 10:04:00,55.7,49.3,30.18,West,279,9.2,9.2,79,0.00,BKN,,0.00,98.0,WeatherDisplay:10.37,2013-09-01 09:04:00,
2013-09-01 10:09:00,55.7,49.3,30.19,SSE,155,11.5,11.5,79,0.00,BKN,,0.00,107.0,WeatherDisplay:10.37,2013-09-01 09:09:00,
2013-09-01 10:14:00,55.7,48.9,30.18,ESE,121,16.1,16.1,78,0.00,BKN,,0.00,121.0,WeatherDisplay:10.37,2013-09-01 09:14:00,
2013-09-01 10:19:00,55.7,48.9,30.18,West,269,4.6,4.6,78,0.00,BKN,,0.00,111.0,WeatherDisplay:10.37,2013-09-01 09:19:00,
2013-09-01 10:24:00,55.8,49.0,30.18,West,263,5.8,5.8,78,0.00,BKN,,0.00,114.0,WeatherDisplay:10.37,2013-09-01 09:24:00,
2013-09-01 10:29:00,55.8,48.7,30.18,WSW,246,10.4,10.4,77,0.00,BKN,,0.00,90.0,WeatherDisplay:10.37,2013-09-01 09:29:00,
2013-09-01 10:34:00,55.8,48.7,30.18,SW,219,18.4,18.4,77,0.00,BKN,,0.00,105.0,WeatherDisplay:10.37,2013-09-01 09:34:00,
2013-09-01 10:39:00,55.9,48.8,30.17,WSW,248,4.6,4.6,77,0.00,BKN,,0.00,113.0,WeatherDisplay:10.37,2013-09-01 09:39:00,
2013-09-01 10:44:00,56.0,48.9,30.17,SW,234,16.1,16.1,77,0.00,BKN,,0.00,114.0,WeatherDisplay:10.37,2013-09-01 09:44:00,
2013-09-01 10:49:00,56.0,48.5,30.17,WSW,241,4.6,4.6,76,0.00,BKN,,0.00,109.0,WeatherDisplay:10.37,2013-09-01 09:49:00,
2013-09-01 10:54:00,56.1,48.6,30.17,SW,236,5.8,5.8,76,0.00,BKN,,0.00,114.0,WeatherDisplay:10.37,2013-09-01 09:54:00,
2013-09-01 10:59:00,56.2,48.4,30.17,West,272,10.4,10.4,75,0.00,BKN,,0.00,88.0,WeatherDisplay:10.37,2013-09-01 09:59:00,
2013-09-01 11:04:00,56.3,48.5,30.18,SW,229,11.5,11.5,75,0.00,BKN,,0.00,81.0,WeatherDisplay:10.37,2013-09-01 10:04:00,
2013-09-01 11:09:00,56.3,48.5,30.17,WSW,246,11.5,11.5,75,0.00,BKN,,0.00,95.0,WeatherDisplay:10.37,2013-09-01 10:09:00,
2013-09-01 11:14:00,56.4,48.6,30.18,SW,227,13.8,13.8,75,0.00,BKN,,0.00,74.0,WeatherDisplay:10.37,2013-09-01 10:14:00,
2013-09-01 11:19:00,56.4,48.6,30.17,West,271,15.0,15.0,75,0.00,BKN,,0.00,105.0,WeatherDisplay:10.37,2013-09-01 10:19:00,
2013-09-01 11:24:00,56.3,48.5,30.17,SW,229,17.3,17.3,75,0.00,BKN,,0.00,116.0,WeatherDisplay:10.37,2013-09-01 10:24:00,
2013-09-01 11:29:00,56.3,48.5,30.17,SW,228,19.6,19.6,75,0.00,BKN,,0.00,100.0,WeatherDisplay:10.37,2013-09-01 10:29:00,
2013-09-01 11:34:00,56.3,48.5,30.17,WSW,242,11.5,11.5,75,0.00,BKN,,0.00,74.0,WeatherDisplay:10.37,2013-09-01 10:34:00,
2013-09-01 11:39:00,56.3,48.1,30.17,West,271,16.1,16.1,74,0.00,BKN,,0.00,69.0,WeatherDisplay:10.37,2013-09-01 10:39:00,
2013-09-01 11:44:00,56.2,48.4,30.17,SW,223,4.0,4.0,75,0.00,OVC,,0.00,76.0,WeatherDisplay:10.37,2013-09-01 10:44:00,
2013-09-01 11:49:00,56.2,48.4,30.18,West,261,11.5,11.5,75,0.00,OVC,,0.00,58.0,WeatherDisplay:10.37,2013-09-01 10:49:00,
2013-09-01 11:54:00,56.1,49.0,30.18,NW,304,19.6,19.6,77,0.00,OVC,,0.00,60.0,WeatherDisplay:10.37,2013-09-01 10:54:00,
2013-09-01 11:59:00,56.0,49.2,30.18,WSW,240,11.5,11.5,78,0.00,BKN,,0.00,118.0,WeatherDisplay:10.37,2013-09-01 10:59:00,
2013-09-01 12:04:00,55.9,49.1,30.18,WSW,241,19.6,19.6,78,0.00,BKN,,0.00,95.0,WeatherDisplay:10.37,2013-09-01 11:04:00,
2013-09-01 12:09:00,55.9,49.1,30.18,North,360,11.5,11.5,78,0.00,BKN,,0.00,104.0,WeatherDisplay:10.37,2013-09-01 11:09:00,
2013-09-01 12:14:00,55.9,48.8,30.18,SW,230,15.0,15.0,77,0.00,BKN,,0.00,128.0,WeatherDisplay:10.37,2013-09-01 11:14:00,
2013-09-01 12:19:00,56.0,48.9,30.18,WSW,244,16.1,16.1,77,0.00,BKN,,0.00,97.0,WeatherDisplay:10.37,2013-09-01 11:19:00,
2013-09-01 12:24:00,56.0,48.9,30.18,SW,222,5.8,5.8,77,0.00,BKN,,0.00,62.0,WeatherDisplay:10.37,2013-09-01 11:24:00,
2013-09-01 12:29:00,56.1,49.0,30.18,West,265,3.5,3.5,77,0.00,OVC,,0.00,35.0,WeatherDisplay:10.37,2013-09-01 11:29:00,
2013-09-01 12:34:00,56.1,49.0,30.18,West,268,3.5,3.5,77,0.00,OVC,,0.00,40.0,WeatherDisplay:10.37,2013-09-01 11:34:00,
2013-09-01 12:39:00,56.1,49.7,30.18,WSW,240,4.6,4.6,79,0.00,OVC,,0.00,76.0,WeatherDisplay:10.37,2013-09-01 11:39:00,
2013-09-01 12:44:00,56.1,49.7,30.17,SW,236,6.9,6.9,79,0.00,OVC,,0.00,123.0,WeatherDisplay:10.37,2013-09-01 11:44:00,
2013-09-01 12:49:00,56.0,49.6,30.17,West,261,9.2,9.2,79,0.00,BKN,,0.00,114.0,WeatherDisplay:10.37,2013-09-01 11:49:00,
2013-09-01 12:54:00,56.1,49.3,30.17,WSW,238,10.4,10.4,78,0.00,BKN,,0.00,123.0,WeatherDisplay:10.37,2013-09-01 11:54:00,
2013-09-01 12:59:00,56.2,49.1,30.17,SW,231,4.6,4.6,77,0.00,BKN,,0.00,100.0,WeatherDisplay:10.37,2013-09-01 11:59:00,
2013-09-01 13:04:00,56.4,48.9,30.18,North,355,5.8,5.8,76,0.00,BKN,,0.00,104.0,WeatherDisplay:10.37,2013-09-01 12:04:00,
2013-09-01 13:09:00,56.5,48.7,30.17,SW,228,18.4,18.4,75,0.00,BKN,,0.00,102.0,WeatherDisplay:10.37,2013-09-01 12:09:00,
2013-09-01 13:14:00,56.7,48.5,30.17,WSW,248,9.2,9.2,74,0.00,BKN,,0.00,123.0,WeatherDisplay:10.37,2013-09-01 12:14:00,
2013-09-01 13:19:00,56.9,48.3,30.17,WSW,242,16.1,16.1,73,0.00,BKN,,0.00,128.0,WeatherDisplay:10.37,2013-09-01 12:19:00,
2013-09-01 13:24:00,57.2,48.6,30.17,WSW,257,26.5,26.5,73,0.00,BKN,,0.00,132.0,WeatherDisplay:10.37,2013-09-01 12:24:00,
2013-09-01 13:29:00,57.3,48.7,30.17,WNW,296,19.6,19.6,73,0.00,BKN,,0.00,114.0,WeatherDisplay:10.37,2013-09-01 12:29:00,
2013-09-01 13:34:00,57.3,48.3,30.17,WNW,300,13.8,13.8,72,0.00,BKN,,0.00,116.0,WeatherDisplay:10.37,2013-09-01 12:34:00,
2013-09-01 13:39:00,57.3,48.3,30.16,WNW,303,18.4,18.4,72,0.00,BKN,,0.00,132.0,WeatherDisplay:10.37,2013-09-01 12:39:00,
2013-09-01 13:44:00,57.3,48.7,30.16,SW,230,19.6,19.6,73,0.00,BKN,,0.00,156.0,WeatherDisplay:10.37,2013-09-01 12:44:00,
2013-09-01 13:49:00,57.5,48.9,30.16,SW,234,11.5,11.5,73,0.00,BKN,,0.00,127.0,WeatherDisplay:10.37,2013-09-01 12:49:00,
2013-09-01 13:54:00,57.7,49.1,30.15,WSW,244,18.4,18.4,73,0.00,BKN,,0.00,105.0,WeatherDisplay:10.37,2013-09-01 12:54:00,
2013-09-01 13:59:00,57.8,48.8,30.15,WSW,240,13.8,13.8,72,0.00,BKN,,0.00,105.0,WeatherDisplay:10.37,2013-09-01 12:59:00,
2013-09-01 14:04:00,57.8,49.2,30.15,WNW,282,19.6,19.6,73,0.00,BKN,,0.00,102.0,WeatherDisplay:10.37,2013-09-01 13:04:00,
2013-09-01 14:09:00,57.6,49.0,30.16,SW,236,12.7,12.7,73,0.00,BKN,,0.00,97.0,WeatherDisplay:10.37,2013-09-01 13:09:00,
2013-09-01 14:14:00,57.4,48.8,30.16,North,10,6.9,6.9,73,0.00,BKN,,0.00,44.0,WeatherDisplay:10.37,2013-09-01 13:14:00,
2013-09-01 14:19:00,57.3,49.1,30.17,WSW,256,16.1,16.1,74,0.00,OVC,,0.00,42.0,WeatherDisplay:10.37,2013-09-01 13:19:00,
2013-09-01 14:24:00,57.3,49.8,30.17,SW,233,11.5,11.5,76,0.00,OVC,,0.00,141.0,WeatherDisplay:10.37,2013-09-01 13:24:00,
2013-09-01 14:29:00,57.3,49.8,30.16,WSW,239,9.2,9.2,76,0.00,BKN,,0.00,192.0,WeatherDisplay:10.37,2013-09-01 13:29:00,
2013-09-01 14:34:00,57.3,49.4,30.16,SW,221,5.0,5.0,75,0.00,BKN,,0.00,172.0,WeatherDisplay:10.37,2013-09-01 13:34:00,
2013-09-01 14:39:00,57.4,49.5,30.16,WNW,286,4.6,4.6,75,0.00,BKN,,0.00,153.0,WeatherDisplay:10.37,2013-09-01 13:39:00,
2013-09-01 14:44:00,57.7,49.5,30.16,NNW,329,11.5,11.5,74,0.00,BKN,,0.00,95.0,WeatherDisplay:10.37,2013-09-01 13:44:00,
2013-09-01 14:49:00,57.7,49.5,30.16,WSW,237,13.8,13.8,74,0.00,BKN,,0.00,134.0,WeatherDisplay:10.37,2013-09-01 13:49:00,
2013-09-01 14:54:00,57.8,49.6,30.16,WSW,257,10.4,10.4,74,0.00,BKN,,0.00,77.0,WeatherDisplay:10.37,2013-09-01 13:54:00,
2013-09-01 14:59:00,57.8,49.6,30.16,WNW,291,13.8,13.8,74,0.00,BKN,,0.00,54.0,WeatherDisplay:10.37,2013-09-01 13:59:00,
2013-09-01 15:04:00,57.7,49.5,30.16,WSW,242,12.7,12.7,74,0.00,OVC,,0.00,62.0,WeatherDisplay:10.37,2013-09-01 14:04:00,
2013-09-01 15:09:00,57.5,49.3,30.16,West,265,7.0,7.0,74,0.00,OVC,,0.00,70.0,WeatherDisplay:10.37,2013-09-01 14:09:00,
2013-09-01 15:15:00,57.3,49.4,30.16,West,265,6.9,6.9,75,0.00,BKN,,0.00,88.0,WeatherDisplay:10.37,2013-09-01 14:15:00,
2013-09-01 15:20:00,57.3,49.1,30.16,SSW,206,15.0,15.0,74,0.00,BKN,,0.00,63.0,WeatherDisplay:10.37,2013-09-01 14:20:00,
2013-09-01 15:25:00,57.3,49.1,30.15,NNW,348,4.6,4.6,74,0.00,OVC,,0.00,65.0,WeatherDisplay:10.37,2013-09-01 14:25:00,
2013-09-01 15:30:00,57.3,49.1,30.15,SW,234,18.4,18.4,74,0.00,OVC,,0.00,65.0,WeatherDisplay:10.37,2013-09-01 14:30:00,
2013-09-01 15:35:00,57.3,49.1,30.15,SE,124,9.0,9.0,74,0.00,BKN,,0.00,84.0,WeatherDisplay:10.37,2013-09-01 14:35:00,
2013-09-01 15:40:00,57.3,48.7,30.15,WSW,245,15.0,15.0,73,0.00,BKN,,0.00,83.0,WeatherDisplay:10.37,2013-09-01 14:40:00,
2013-09-01 15:45:00,57.3,48.7,30.15,WNW,288,11.5,11.5,73,0.00,BKN,,0.00,63.0,WeatherDisplay:10.37,2013-09-01 14:45:00,
2013-09-01 15:50:00,57.3,48.7,30.15,West,264,4.6,4.6,73,0.00,BKN,,0.00,65.0,WeatherDisplay:10.37,2013-09-01 14:50:00,
2013-09-01 15:55:00,57.3,49.1,30.16,West,267,3.5,3.5,74,0.00,BKN,,0.00,63.0,WeatherDisplay:10.37,2013-09-01 14:55:00,
2013-09-01 16:00:00,57.3,49.1,30.15,WSW,252,24.2,24.2,74,0.00,BKN,,0.00,69.0,WeatherDisplay:10.37,2013-09-01 15:00:00,
2013-09-01 16:05:00,57.3,49.4,30.14,WSW,240,16.0,16.0,75,0.00,BKN,,0.00,69.0,WeatherDisplay:10.37,2013-09-01 15:05:00,
2013-09-01 16:10:00,57.3,49.1,30.15,WSW,252,18.4,18.4,74,0.00,BKN,,0.00,72.0,WeatherDisplay:10.37,2013-09-01 15:10:00,
2013-09-01 16:15:00,57.3,49.1,30.15,SW,227,11.5,11.5,74,0.00,BKN,,0.00,95.0,WeatherDisplay:10.37,2013-09-01 15:15:00,
2013-09-01 16:20:00,57.3,49.1,30.15,WSW,257,13.8,13.8,74,0.00,BKN,,0.00,56.0,WeatherDisplay:10.37,2013-09-01 15:20:00,
2013-09-01 16:25:00,57.3,49.1,30.15,WSW,250,11.5,11.5,74,0.00,BKN,,0.00,47.0,WeatherDisplay:10.37,2013-09-01 15:25:00,
2013-09-01 16:30:00,57.3,49.4,30.14,WSW,248,18.4,18.4,75,0.00,OVC,,0.00,37.0,WeatherDisplay:10.37,2013-09-01 15:30:00,
2013-09-01 16:35:00,57.3,49.1,30.15,West,259,13.8,13.8,74,0.00,OVC,,0.00,33.0,WeatherDisplay:10.37,2013-09-01 15:35:00,
2013-09-01 16:40:00,57.3,49.1,30.14,WNW,292,17.3,17.3,74,0.00,OVC,,0.00,40.0,WeatherDisplay:10.37,2013-09-01 15:40:00,
2013-09-01 16:45:00,57.3,49.1,30.15,West,273,13.8,13.8,74,0.00,OVC,,0.00,69.0,WeatherDisplay:10.37,2013-09-01 15:45:00,
2013-09-01 16:50:00,57.3,49.1,30.14,SW,215,13.8,13.8,74,0.00,BKN,,0.00,46.0,WeatherDisplay:10.37,2013-09-01 15:50:00,
2013-09-01 16:55:00,57.3,49.1,30.14,WSW,254,19.6,19.6,74,0.00,BKN,,0.00,51.0,WeatherDisplay:10.37,2013-09-01 15:55:00,
2013-09-01 17:00:00,57.3,49.1,30.14,WSW,240,12.7,12.7,74,0.00,OVC,,0.00,42.0,WeatherDisplay:10.37,2013-09-01 16:00:00,
2013-09-01 17:05:00,57.3,49.4,30.15,SW,221,11.5,11.5,75,0.00,OVC,,0.00,30.0,WeatherDisplay:10.37,2013-09-01 16:05:00,
2013-09-01 17:10:00,57.3,49.4,30.15,West,260,21.9,21.9,75,0.00,OVC,,0.00,44.0,WeatherDisplay:10.37,2013-09-01 16:10:00,
2013-09-01 17:15:00,57.3,49.4,30.15,WSW,252,23.0,23.0,75,0.00,OVC,,0.00,33.0,WeatherDisplay:10.37,2013-09-01 16:15:00,
2013-09-01 17:20:00,57.3,49.8,30.15,SW,219,11.5,11.5,76,0.00,OVC,,0.00,35.0,WeatherDisplay:10.37,2013-09-01 16:20:00,
2013-09-01 17:25:00,57.3,49.8,30.15,WNW,298,19.6,19.6,76,0.00,OVC,,0.00,63.0,WeatherDisplay:10.37,2013-09-01 16:25:00,
2013-09-01 17:30:00,57.3,49.8,30.15,West,264,15.0,15.0,76,0.00,BKN,,0.00,63.0,WeatherDisplay:10.37,2013-09-01 16:30:00,
2013-09-01 17:35:00,57.3,49.8,30.15,West,272,19.6,19.6,76,0.00,BKN,,0.00,37.0,WeatherDisplay:10.37,2013-09-01 16:35:00,
2013-09-01 17:40:00,57.3,49.4,30.14,WSW,242,24.2,24.2,75,0.00,BKN,,0.00,32.0,WeatherDisplay:10.37,2013-09-01 16:40:00,
2013-09-01 17:45:00,57.3,49.8,30.14,SW,232,15.0,15.0,76,0.00,BKN,,0.00,35.0,WeatherDisplay:10.37,2013-09-01 16:45:00,
2013-09-01 17:50:00,57.3,49.8,30.14,WSW,242,12.7,12.7,76,0.00,BKN,,0.00,37.0,WeatherDisplay:10.37,2013-09-01 16:50:00,
2013-09-01 17:55:00,57.3,49.8,30.14,West,261,16.0,16.0,76,0.00,BKN,,0.00,33.0,WeatherDisplay:10.37,2013-09-01 16:55:00,
2013-09-01 18:00:00,57.3,49.8,30.14,WSW,243,19.6,19.6,76,0.00,BKN,,0.00,42.0,WeatherDisplay:10.37,2013-09-01 17:00:00,
2013-09-01 18:05:00,57.3,49.8,30.14,WSW,248,15.0,15.0,76,0.00,BKN,,0.00,23.0,WeatherDisplay:10.37,2013-09-01 17:05:00,
2013-09-01 18:10:00,57.3,50.1,30.15,West,269,13.8,13.8,77,0.00,OVC,,0.00,19.0,WeatherDisplay:10.37,2013-09-01 17:10:00,
2013-09-01 18:15:00,57.3,50.5,30.15,WSW,248,14.0,14.0,78,0.00,OVC,,0.00,21.0,WeatherDisplay:10.37,2013-09-01 17:15:00,
2013-09-01 18:20:00,57.3,50.5,30.15,WSW,242,17.3,17.3,78,0.00,OVC,,0.00,19.0,WeatherDisplay:10.37,2013-09-01 17:20:00,
2013-09-01 18:25:00,57.1,50.3,30.15,West,269,9.2,9.2,78,0.00,OVC,,0.00,14.0,WeatherDisplay:10.37,2013-09-01 17:25:00,
2013-09-01 18:30:00,57.0,50.2,30.15,SW,234,20.0,20.0,78,0.00,OVC,,0.00,14.0,WeatherDisplay:10.37,2013-09-01 17:30:00,
2013-09-01 18:35:00,56.9,50.1,30.15,WSW,237,17.3,17.3,78,0.00,OVC,,0.00,14.0,WeatherDisplay:10.37,2013-09-01 17:35:00,
2013-09-01 18:40:00,56.9,50.1,30.15,WNW,284,6.9,6.9,78,0.00,OVC,,0.00,12.0,WeatherDisplay:10.37,2013-09-01 17:40:00,
2013-09-01 18:45:00,56.9,50.1,30.15,WSW,254,17.3,17.3,78,0.00,OVC,,0.00,16.0,WeatherDisplay:10.37,2013-09-01 17:45:00,
2013-09-01 18:50:00,57.0,50.2,30.15,WSW,238,10.4,10.4,78,0.00,OVC,,0.00,19.0,WeatherDisplay:10.37,2013-09-01 17:50:00,
2013-09-01 18:55:00,57.0,50.5,30.14,WNW,290,10.4,10.4,79,0.00,OVC,,0.00,14.0,WeatherDisplay:10.37,2013-09-01 17:55:00,
2013-09-01 19:00:00,57.0,50.5,30.14,WNW,292,16.1,16.1,79,0.00,OVC,,0.00,11.0,WeatherDisplay:10.37,2013-09-01 18:00:00,
2013-09-01 19:05:00,57.0,50.5,30.13,WSW,238,19.0,19.0,79,0.00,OVC,,0.00,18.0,WeatherDisplay:10.37,2013-09-01 18:05:00,
2013-09-01 19:10:00,57.1,50.6,30.13,SW,222,16.1,16.1,79,0.00,BKN,,0.00,28.0,WeatherDisplay:10.37,2013-09-01 18:10:00,
2013-09-01 19:15:00,57.0,50.5,30.13,WSW,243,11.5,11.5,79,0.00,BKN,,0.00,21.0,WeatherDisplay:10.37,2013-09-01 18:15:00,
2013-09-01 19:20:00,57.1,50.6,30.13,WSW,248,16.1,16.1,79,0.00,BKN,,0.00,21.0,WeatherDisplay:10.37,2013-09-01 18:20:00,
2013-09-01 19:25:00,57.0,50.9,30.12,WNW,291,15.0,15.0,80,0.00,BKN,,0.00,11.0,WeatherDisplay:10.37,2013-09-01 18:25:00,
2013-09-01 19:30:00,57.0,50.9,30.13,West,267,18.4,18.4,80,0.00,BKN,,0.00,9.0,WeatherDisplay:10.37,2013-09-01 18:30:00,
2013-09-01 19:35:00,57.0,50.9,30.13,SW,226,6.9,6.9,80,0.00,BKN,,0.00,9.0,WeatherDisplay:10.37,2013-09-01 18:35:00,
2013-09-01 19:40:00,57.0,51.2,30.13,WSW,243,12.7,12.7,81,0.00,BKN,,0.00,7.0,WeatherDisplay:10.37,2013-09-01 18:40:00,
2013-09-01 19:45:00,56.9,51.1,30.14,WNW,287,11.5,11.5,81,0.00,OVC,,0.00,5.0,WeatherDisplay:10.37,2013-09-01 18:45:00,
2013-09-01 19:50:00,56.9,51.1,30.13,WNW,300,19.6,19.6,81,0.00,BKN,,0.00,5.0,WeatherDisplay:10.37,2013-09-01 18:50:00,
2013-09-01 19:55:00,56.8,51.4,30.14,WNW,287,17.3,17.3,82,0.00,OVC,,0.00,0.0,WeatherDisplay:10.37,2013-09-01 18:55:00,
2013-09-01 20:00:00,56.7,51.3,30.14,WNW,284,15.0,15.0,82,0.00,OVC,,0.00,0.0,WeatherDisplay:10.37,2013-09-01 19:00:00,
2013-09-01 20:05:00,56.7,51.3,30.13,WSW,246,11.5,11.5,82,0.00,OVC,,0.00,0.0,WeatherDisplay:10.37,2013-09-01 19:05:00,
2013-09-01 20:10:00,56.7,51.6,30.13,West,268,11.5,11.5,83,0.00,OVC,,0.00,0.0,WeatherDisplay:10.37,2013-09-01 19:10:00,
2013-09-01 20:15:00,56.6,51.5,30.13,WSW,253,21.9,21.9,83,0.00,OVC,,0.00,0.0,WeatherDisplay:10.37,2013-09-01 19:15:00,
2013-09-01 20:20:00,56.6,51.5,30.13,SW,234,23.0,23.0,83,0.00,OVC,,0.00,0.0,WeatherDisplay:10.37,2013-09-01 19:20:00,
2013-09-01 20:25:00,56.6,51.5,30.13,WSW,254,13.8,13.8,83,0.00,OVC,,0.00,0.0,WeatherDisplay:10.37,2013-09-01 19:25:00,
2013-09-01 20:30:00,56.6,51.5,30.13,WNW,302,5.8,5.8,83,0.00,OVC,,0.00,0.0,WeatherDisplay:10.37,2013-09-01 19:30:00,
2013-09-01 20:35:00,56.5,51.7,30.13,West,263,19.6,19.6,84,0.00,OVC,,0.00,0.0,WeatherDisplay:10.37,2013-09-01 19:35:00,
2013-09-01 20:40:00,56.5,51.7,30.13,WSW,241,5.8,5.8,84,0.00,CLR,,0.00,0.0,WeatherDisplay:10.37,2013-09-01 19:40:00,
2013-09-01 20:46:00,56.4,51.9,30.13,WSW,249,9.2,9.2,85,0.00,CLR,,0.00,0.0,WeatherDisplay:10.37,2013-09-01 19:46:00,
2013-09-01 20:51:00,56.3,52.2,30.12,SW,226,16.1,16.1,86,0.00,CLR,,0.00,0.0,WeatherDisplay:10.37,2013-09-01 19:51:00,
2013-09-01 20:56:00,56.2,52.1,30.13,West,277,18.4,18.4,86,0.00,CLR,,0.00,0.0,WeatherDisplay:10.37,2013-09-01 19:56:00,
2013-09-01 21:01:00,56.2,52.4,30.13,WSW,256,19.6,19.6,87,0.00,CLR,,0.00,0.0,WeatherDisplay:10.37,2013-09-01 20:01:00,
2013-09-01 21:06:00,56.1,52.3,30.13,West,276,16.1,16.1,87,0.00,CLR,,0.00,0.0,WeatherDisplay:10.37,2013-09-01 20:06:00,
2013-09-01 21:11:00,56.0,52.2,30.13,WSW,240,16.1,16.1,87,0.00,CLR,,0.00,0.0,WeatherDisplay:10.37,2013-09-01 20:11:00,
2013-09-01 21:16:00,56.0,52.2,30.13,SW,219,11.5,11.5,87,0.00,CLR,,0.00,0.0,WeatherDisplay:10.37,2013-09-01 20:16:00,
2013-09-01 21:21:00,56.0,52.2,30.13,SW,218,16.1,16.1,87,0.00,CLR,,0.00,0.0,WeatherDisplay:10.37,2013-09-01 20:21:00,
2013-09-01 21:26:00,55.9,52.1,30.12,SW,234,11.5,11.5,87,0.00,CLR,,0.00,0.0,WeatherDisplay:10.37,2013-09-01 20:26:00,
2013-09-01 21:31:00,55.9,52.4,30.12,WSW,257,13.8,13.8,88,0.00,CLR,,0.00,0.0,WeatherDisplay:10.37,2013-09-01 20:31:00,
2013-09-01 21:36:00,55.9,52.4,30.12,West,271,11.5,11.5,88,0.00,CLR,,0.00,0.0,WeatherDisplay:10.37,2013-09-01 20:36:00,
2013-09-01 21:41:00,55.9,52.4,30.12,SW,234,9.2,9.2,88,0.00,CLR,,0.00,0.0,WeatherDisplay:10.37,2013-09-01 20:41:00,
2013-09-01 21:46:00,55.9,52.4,30.12,SW,234,20.7,20.7,88,0.00,CLR,,0.00,0.0,WeatherDisplay:10.37,2013-09-01 20:46:00,
2013-09-01 21:51:00,56.0,52.5,30.12,SW,216,12.7,12.7,88,0.00,CLR,,0.00,0.0,WeatherDisplay:10.37,2013-09-01 20:51:00,
2013-09-01 21:56:00,56.0,52.5,30.12,WSW,252,19.6,19.6,88,0.00,CLR,,0.00,0.0,WeatherDisplay:10.37,2013-09-01 20:56:00,
2013-09-01 22:01:00,56.1,52.6,30.12,SW,234,5.8,5.8,88,0.00,CLR,,0.00,0.0,WeatherDisplay:10.37,2013-09-01 21:01:00,
2013-09-01 22:06:00,56.1,52.6,30.12,SW,231,19.6,19.6,88,0.00,CLR,,0.00,0.0,WeatherDisplay:10.37,2013-09-01 21:06:00,
2013-09-01 22:11:00,56.1,52.6,30.11,WSW,237,11.5,11.5,88,0.00,CLR,,0.00,0.0,WeatherDisplay:10.37,2013-09-01 21:11:00,
2013-09-01 22:16:00,56.2,52.7,30.11,WSW,240,5.8,5.8,88,0.00,CLR,,0.00,0.0,WeatherDisplay:10.37,2013-09-01 21:16:00,
2013-09-01 22:21:00,56.3,52.5,30.11,WSW,246,11.5,11.5,87,0.00,CLR,,0.00,0.0,WeatherDisplay:10.37,2013-09-01 21:21:00,
2013-09-01 22:26:00,56.4,52.6,30.11,West,278,6.9,6.9,87,0.00,CLR,,0.00,0.0,WeatherDisplay:10.37,2013-09-01 21:26:00,
2013-09-01 22:31:00,56.4,52.6,30.11,West,270,9.2,9.2,87,0.00,CLR,,0.00,0.0,WeatherDisplay:10.37,2013-09-01 21:31:00,
2013-09-01 22:36:00,56.5,52.7,30.10,WSW,245,11.5,11.5,87,0.00,CLR,,0.00,0.0,WeatherDisplay:10.37,2013-09-01 21:36:00,
2013-09-01 22:41:00,56.6,52.8,30.11,SW,232,16.1,16.1,87,0.00,CLR,,0.00,0.0,WeatherDisplay:10.37,2013-09-01 21:41:00,
2013-09-01 22:46:00,56.6,52.5,30.10,West,271,16.1,16.1,86,0.00,CLR,,0.00,0.0,WeatherDisplay:10.37,2013-09-01 21:46:00,
2013-09-01 22:51:00,56.7,52.6,30.10,WSW,245,13.8,13.8,86,0.00,CLR,,0.00,0.0,WeatherDisplay:10.37,2013-09-01 21:51:00,
2013-09-01 22:56:00,56.7,52.9,30.10,SW,229,10.4,10.4,87,0.00,CLR,,0.00,0.0,WeatherDisplay:10.37,2013-09-01 21:56:00,
2013-09-01 23:01:00,56.8,53.0,30.10,WSW,248,6.9,6.9,87,0.00,CLR,,0.00,0.0,WeatherDisplay:10.37,2013-09-01 22:01:00,
2013-09-01 23:06:00,56.8,53.0,30.10,NW,315,11.5,11.5,87,0.00,CLR,,0.00,0.0,WeatherDisplay:10.37,2013-09-01 22:06:00,
2013-09-01 23:11:00,56.8,53.0,30.09,SW,214,19.6,19.6,87,0.00,CLR,,0.00,0.0,WeatherDisplay:10.37,2013-09-01 22:11:00,
2013-09-01 23:16:00,56.8,53.0,30.10,WNW,299,18.4,18.4,87,0.00,CLR,,0.00,0.0,WeatherDisplay:10.37,2013-09-01 22:16:00,
2013-09-01 23:21:00,56.7,52.9,30.10,SW,223,15.0,15.0,87,0.00,CLR,,0.00,0.0,WeatherDisplay:10.37,2013-09-01 22:21:00,
2013-09-01 23:26:00,56.7,52.9,30.10,WSW,250,21.9,21.9,87,0.00,CLR,,0.00,0.0,WeatherDisplay:10.37,2013-09-01 22:26:00,
2013-09-01 23:31:00,56.8,53.3,30.09,NW,308,11.5,11.5,88,0.00,CLR,,0.00,0.0,WeatherDisplay:10.37,2013-09-01 22:31:00,
2013-09-01 23:36:00,56.8,53.3,30.09,NW,313,6.9,6.9,88,0.00,CLR,,0.00,0.0,WeatherDisplay:10.37,2013-09-01 22:36:00,
2013-09-01 23:41:00,56.9,53.4,30.10,SW,232,10.4,10.4,88,0.00,CLR,,0.00,0.0,WeatherDisplay:10.37,2013-09-01 22:41:00,
2013-09-01 23:46:00,56.9,53.4,30.10,NW,306,11.5,11.5,88,0.00,CLR,,0.00,0.0,WeatherDisplay:10.37,2013-09-01 22:46:00,
2013-09-01 23:51:00,56.9,53.4,30.09,WSW,254,11.5,11.5,88,0.00,CLR,,0.00,0.0,WeatherDisplay:10.37,2013-09-01 22:51:00,
2013-09-01 23:56:00,57.0,53.5,30.09,WSW,249,5.8,5.8,88,0.00,CLR,,0.00,0.0,WeatherDisplay:10.37,2013-09-01 22:56:00,